Point Mugu Naval Air Station (Naval Base Ventura Co)
KNTD : now visible

Airfield :











YOU CAN JOIN US ON...

 
LOGIN :

Register | Disclaimer

   EN    FR    IT 

 









Legend :    VFR   Marginal VFR   IFR   Intensive IFR   Very Intensive IFR
Visi :
Ceiling :
>= 8 km
>= 3000ft
5 to 8 km
1000 to 3000 ft
1500m to 5 km
500 to 1000 ft
800 to 1500m
200 to 500 ft
< 800m
< 200 ft
Symbols :   Thunderstorms  Fog  Heavy snow  Heavy precipitations  Wind > 20 kt






- Airport Elevation : 13 ft


KNTD - Point Mugu Naval Air Station (Naval Base Ventura Co)

CURRENT METAR :
  • 210552Z 09004KT 6SM BR OVC007 17/15 A2985 RMK AO2 SLP108 T01720150 10183 20167 53005 $

EXPIRED METARs :
  • 210452Z 06005KT 6SM BR OVC007 17/15 A2984 RMK AO2 SLP105 T01720150 $
  • 210352Z 00000KT 6SM BR OVC007 17/15 A2984 RMK AO2 SLP104 T01720150 $

TAF TAF KNTD
Valid from the 20 at 23:00 until the 21 at 23:00 UTC


2023/2123 27007KT 8000 HZ OVC011 QNH2978INS
TEMPO 2101/2105 VRB05KT 4800 BR OVC009
FM210500 VRB05KT 4800 BR OVC007 QNH2978INS
TEMPO 2113/2119 2400 -DZ BR OVC004
FM211900 20008KT 6000 HZ OVC012 QNH2979INS
BECMG 2121/2123 24008KT 9000 HZ SCT015 QNH2978INS AUTOMATED SENSOR METWATCH 2106 TIL 2113 T15/2112Z T21/2121Z FS30101
KZLA FIR / North America



MET'MAP, your aeronautical weather chart ! - Copyright ORBIFLY December 2007 - Disclaimer

ORBIFLY MET'MAP TEAM :

Programming & Development : Alexandra Zaïnal
Concept & original design : Baudouin d'Aumeries
Assistance for programming : Marc-Olivier Méhu
Technical & hardware support : Manuel Goepfert

Contact : metmap@orbifly.com




SOURCES & CREDITS :

   NOAA       Earth
Advisory